PWSweather.com
Personal Weather Stations
Station Observations

ChardChardGB

Lat: 50.877408, Lon: -2.94964741

Elevation: 341

Station Type: WS3083

http://www.merriott-astro.co.uk/weather/index.htm

High Low Average
Temperature 58.8°F14.9°C 48.0°F8.9°C 51.7°F10.9°C
Dew Point 50.1°F10.1°C 41.7°F5.4°C 46.8°F8.2°C
Winds 13.2 mph 21.2 kmh 1.0 mph 1.6 kmh 8.0 mph SSW12.9 kmh SSW
Wind Gusts 22.8 mph36.7 kmh 5.4 mph8.7 kmh 11.0 mph17.7 kmh
Humidity 94% 53% 84%
Pressure 29.16 in987.5 mb 28.95 in980.4 mb -
Precipitation 0.08 in2.0 mm - -
Hour Temp Dew Point Humidity Winds Wind Gusts Pressure Precip Precip Rate Daily Precip Total
12:00 AM 48.0°F8.9°C 46.1°F7.8°C 93% 2.1 mph WSW3.4 kmh WSW 5.4 mph8.7 kmh 29.16 in987.5 mb 0.07 in1.8 mm 0.00 in0.0 mm 0.07 in1.8 mm
12:10 AM 48.2°F9.0°C 46.6°F8.1°C 94% 2.6 mph S4.2 kmh S 6.0 mph9.7 kmh 29.14 in986.8 mb 0.08 in2.0 mm 0.06 in1.5 mm 0.02 in0.5 mm
12:20 AM 48.6°F9.2°C 46.9°F8.3°C 94% 1.0 mph SW1.6 kmh SW 6.0 mph9.7 kmh 29.14 in986.8 mb 0.09 in2.3 mm 0.06 in1.5 mm 0.04 in1.0 mm
12:30 AM 48.7°F9.3°C 47.1°F8.4°C 94% 6.5 mph S10.5 kmh S 8.3 mph13.4 kmh 29.14 in986.8 mb 0.08 in2.0 mm 0.00 in0.0 mm 0.04 in1.0 mm
12:40 AM 48.7°F9.3°C 47.1°F8.4°C 94% 7.6 mph S12.2 kmh S 7.6 mph12.2 kmh 29.13 in986.5 mb 0.07 in1.8 mm 0.00 in0.0 mm 0.04 in1.0 mm
12:50 AM 48.7°F9.3°C 47.1°F8.4°C 94% 7.6 mph S12.2 kmh S 7.6 mph12.2 kmh 29.12 in986.1 mb 0.06 in1.5 mm 0.00 in0.0 mm 0.04 in1.0 mm
01:00 AM 48.7°F9.3°C 47.1°F8.4°C 94% 7.6 mph S12.2 kmh S 7.6 mph12.2 kmh 29.12 in986.1 mb 0.04 in1.0 mm 0.00 in0.0 mm 0.04 in1.0 mm
01:10 AM 48.7°F9.3°C 47.1°F8.4°C 94% 7.6 mph S12.2 kmh S 7.6 mph12.2 kmh 29.10 in985.4 mb 0.01 in0.3 mm 0.00 in0.0 mm 0.04 in1.0 mm
01:20 AM 48.7°F9.3°C 47.1°F8.4°C 94% 7.6 mph S12.2 kmh S 7.6 mph12.2 kmh 29.10 in985.4 mb 0.00 in0.0 mm 0.00 in0.0 mm 0.04 in1.0 mm
01:30 AM 48.7°F9.3°C 47.1°F8.4°C 94% 7.6 mph S12.2 kmh S 7.6 mph12.2 kmh 29.10 in985.4 mb 0.00 in0.0 mm 0.00 in0.0 mm 0.04 in1.0 mm
01:40 AM 48.7°F9.3°C 47.1°F8.4°C 94% 7.6 mph S12.2 kmh S 7.6 mph12.2 kmh 29.10 in985.4 mb 0.00 in0.0 mm 0.00 in0.0 mm 0.04 in1.0 mm
01:50 AM 48.7°F9.3°C 47.1°F8.4°C 94% 7.6 mph S12.2 kmh S 7.6 mph12.2 kmh 29.11 in985.8 mb 0.00 in0.0 mm 0.00 in0.0 mm 0.04 in1.0 mm
02:00 AM 48.7°F9.3°C 47.1°F8.4°C 94% 7.6 mph S12.2 kmh S 7.6 mph12.2 kmh 29.10 in985.4 mb 0.00 in0.0 mm 0.00 in0.0 mm 0.04 in1.0 mm
02:10 AM 48.7°F9.3°C 47.1°F8.4°C 94% 7.6 mph S12.2 kmh S 7.6 mph12.2 kmh 29.10 in985.4 mb 0.00 in0.0 mm 0.00 in0.0 mm 0.04 in1.0 mm
02:20 AM 48.7°F9.3°C 47.1°F8.4°C 94% 7.6 mph S12.2 kmh S 7.6 mph12.2 kmh 29.10 in985.4 mb 0.00 in0.0 mm 0.00 in0.0 mm 0.04 in1.0 mm
02:30 AM 48.7°F9.3°C 47.1°F8.4°C 94% 7.6 mph S12.2 kmh S 7.6 mph12.2 kmh 29.10 in985.4 mb 0.00 in0.0 mm 0.00 in0.0 mm 0.04 in1.0 mm
02:40 AM 48.7°F9.3°C 47.1°F8.4°C 94% 7.6 mph S12.2 kmh S 7.6 mph12.2 kmh 29.09 in985.1 mb 0.00 in0.0 mm 0.00 in0.0 mm 0.04 in1.0 mm
02:50 AM 48.7°F9.3°C 47.1°F8.4°C 94% 7.6 mph S12.2 kmh S 7.6 mph12.2 kmh 29.09 in985.1 mb 0.00 in0.0 mm 0.00 in0.0 mm 0.04 in1.0 mm
03:00 AM 48.7°F9.3°C 47.1°F8.4°C 94% 7.6 mph S12.2 kmh S 7.6 mph12.2 kmh 29.10 in985.4 mb 0.00 in0.0 mm 0.00 in0.0 mm 0.04 in1.0 mm
03:10 AM 48.7°F9.3°C 47.1°F8.4°C 94% 7.6 mph S12.2 kmh S 7.6 mph12.2 kmh 29.08 in984.8 mb 0.00 in0.0 mm 0.00 in0.0 mm 0.04 in1.0 mm
03:20 AM 48.7°F9.3°C 47.1°F8.4°C 94% 7.6 mph S12.2 kmh S 7.6 mph12.2 kmh 29.08 in984.8 mb 0.00 in0.0 mm 0.00 in0.0 mm 0.04 in1.0 mm
03:30 AM 48.7°F9.3°C 47.1°F8.4°C 94% 7.6 mph S12.2 kmh S 7.6 mph12.2 kmh 29.09 in985.1 mb 0.00 in0.0 mm 0.00 in0.0 mm 0.04 in1.0 mm
03:40 AM 48.7°F9.3°C 47.1°F8.4°C 94% 7.6 mph S12.2 kmh S 7.6 mph12.2 kmh 29.10 in985.4 mb 0.00 in0.0 mm 0.00 in0.0 mm 0.04 in1.0 mm
03:50 AM 48.7°F9.3°C 47.1°F8.4°C 94% 7.6 mph S12.2 kmh S 7.6 mph12.2 kmh 29.10 in985.4 mb 0.00 in0.0 mm 0.00 in0.0 mm 0.04 in1.0 mm
04:00 AM 48.7°F9.3°C 47.1°F8.4°C 94% 7.6 mph S12.2 kmh S 7.6 mph12.2 kmh 29.09 in985.1 mb 0.00 in0.0 mm 0.00 in0.0 mm 0.04 in1.0 mm
04:10 AM 48.7°F9.3°C 47.1°F8.4°C 94% 7.6 mph S12.2 kmh S 7.6 mph12.2 kmh 29.10 in985.4 mb 0.00 in0.0 mm 0.00 in0.0 mm 0.04 in1.0 mm
04:20 AM 48.7°F9.3°C 47.1°F8.4°C 94% 7.6 mph S12.2 kmh S 7.6 mph12.2 kmh 29.10 in985.4 mb 0.00 in0.0 mm 0.00 in0.0 mm 0.04 in1.0 mm
04:30 AM 48.7°F9.3°C 47.1°F8.4°C 94% 7.6 mph S12.2 kmh S 7.6 mph12.2 kmh 29.09 in985.1 mb 0.00 in0.0 mm 0.00 in0.0 mm 0.04 in1.0 mm
04:40 AM 48.7°F9.3°C 47.1°F8.4°C 94% 7.6 mph S12.2 kmh S 7.6 mph12.2 kmh 29.10 in985.4 mb 0.00 in0.0 mm 0.00 in0.0 mm 0.04 in1.0 mm
04:50 AM 48.7°F9.3°C 47.1°F8.4°C 94% 7.6 mph S12.2 kmh S 7.6 mph12.2 kmh 29.10 in985.4 mb 0.00 in0.0 mm 0.00 in0.0 mm 0.04 in1.0 mm
05:00 AM 48.7°F9.3°C 47.1°F8.4°C 94% 7.6 mph S12.2 kmh S 7.6 mph12.2 kmh 29.11 in985.8 mb 0.00 in0.0 mm 0.00 in0.0 mm 0.04 in1.0 mm
05:10 AM 48.7°F9.3°C 47.1°F8.4°C 94% 7.6 mph S12.2 kmh S 7.6 mph12.2 kmh 29.11 in985.8 mb 0.00 in0.0 mm 0.00 in0.0 mm 0.04 in1.0 mm
05:20 AM 48.7°F9.3°C 47.1°F8.4°C 94% 7.6 mph S12.2 kmh S 7.6 mph12.2 kmh 29.11 in985.8 mb 0.00 in0.0 mm 0.00 in0.0 mm 0.04 in1.0 mm
05:30 AM 48.7°F9.3°C 47.1°F8.4°C 94% 7.6 mph S12.2 kmh S 7.6 mph12.2 kmh 29.11 in985.8 mb 0.00 in0.0 mm 0.00 in0.0 mm 0.04 in1.0 mm
05:40 AM 48.7°F9.3°C 47.1°F8.4°C 94% 7.6 mph S12.2 kmh S 7.6 mph12.2 kmh 29.13 in986.5 mb 0.00 in0.0 mm 0.00 in0.0 mm 0.04 in1.0 mm
05:50 AM 48.7°F9.3°C 47.1°F8.4°C 94% 7.6 mph S12.2 kmh S 7.6 mph12.2 kmh 29.13 in986.5 mb 0.00 in0.0 mm 0.00 in0.0 mm 0.04 in1.0 mm
06:00 AM 48.7°F9.3°C 47.1°F8.4°C 94% 7.6 mph S12.2 kmh S 7.6 mph12.2 kmh 29.13 in986.5 mb 0.00 in0.0 mm 0.00 in0.0 mm 0.04 in1.0 mm
06:10 AM 48.7°F9.3°C 47.1°F8.4°C 94% 7.6 mph S12.2 kmh S 7.6 mph12.2 kmh 29.13 in986.5 mb 0.00 in0.0 mm 0.00 in0.0 mm 0.04 in1.0 mm
06:20 AM 48.7°F9.3°C 47.1°F8.4°C 94% 7.6 mph S12.2 kmh S 7.6 mph12.2 kmh 29.13 in986.5 mb 0.00 in0.0 mm 0.00 in0.0 mm 0.04 in1.0 mm
06:30 AM 48.7°F9.3°C 47.1°F8.4°C 94% 7.6 mph S12.2 kmh S 7.6 mph12.2 kmh 29.14 in986.8 mb 0.00 in0.0 mm 0.00 in0.0 mm 0.04 in1.0 mm
06:40 AM 48.7°F9.3°C 47.1°F8.4°C 94% 7.6 mph S12.2 kmh S 7.6 mph12.2 kmh 29.14 in986.8 mb 0.00 in0.0 mm 0.00 in0.0 mm 0.04 in1.0 mm
06:50 AM 48.7°F9.3°C 47.1°F8.4°C 94% 7.6 mph S12.2 kmh S 7.6 mph12.2 kmh 29.14 in986.8 mb 0.00 in0.0 mm 0.00 in0.0 mm 0.04 in1.0 mm
07:00 AM 48.7°F9.3°C 47.1°F8.4°C 94% 7.6 mph S12.2 kmh S 7.6 mph12.2 kmh 29.14 in986.8 mb 0.00 in0.0 mm 0.00 in0.0 mm 0.04 in1.0 mm
07:10 AM 48.7°F9.3°C 47.1°F8.4°C 94% 7.6 mph S12.2 kmh S 7.6 mph12.2 kmh 29.14 in986.8 mb 0.00 in0.0 mm 0.00 in0.0 mm 0.04 in1.0 mm
07:20 AM 48.7°F9.3°C 47.1°F8.4°C 94% 7.6 mph S12.2 kmh S 7.6 mph12.2 kmh 29.15 in987.1 mb 0.00 in0.0 mm 0.00 in0.0 mm 0.04 in1.0 mm
07:30 AM 48.7°F9.3°C 47.1°F8.4°C 94% 7.6 mph S12.2 kmh S 7.6 mph12.2 kmh 29.16 in987.5 mb 0.00 in0.0 mm 0.00 in0.0 mm 0.04 in1.0 mm
07:40 AM 48.7°F9.3°C 47.1°F8.4°C 94% 7.6 mph S12.2 kmh S 7.6 mph12.2 kmh 29.16 in987.5 mb 0.00 in0.0 mm 0.00 in0.0 mm 0.04 in1.0 mm
07:50 AM 48.7°F9.3°C 47.1°F8.4°C 94% 7.6 mph S12.2 kmh S 7.6 mph12.2 kmh 29.16 in987.5 mb 0.00 in0.0 mm 0.00 in0.0 mm 0.04 in1.0 mm
08:00 AM 48.7°F9.3°C 47.1°F8.4°C 94% 7.6 mph S12.2 kmh S 7.6 mph12.2 kmh 29.16 in987.5 mb 0.00 in0.0 mm 0.00 in0.0 mm 0.04 in1.0 mm
08:10 AM 48.7°F9.3°C 47.1°F8.4°C 94% 7.6 mph S12.2 kmh S 7.6 mph12.2 kmh 29.16 in987.5 mb 0.00 in0.0 mm 0.00 in0.0 mm 0.04 in1.0 mm
08:20 AM 48.7°F9.3°C 47.1°F8.4°C 94% 7.6 mph S12.2 kmh S 7.6 mph12.2 kmh 29.16 in987.5 mb 0.00 in0.0 mm 0.00 in0.0 mm 0.04 in1.0 mm
08:30 AM 48.7°F9.3°C 47.1°F8.4°C 94% 7.6 mph S12.2 kmh S 7.6 mph12.2 kmh 29.16 in987.5 mb 0.00 in0.0 mm 0.00 in0.0 mm 0.04 in1.0 mm
08:40 AM 48.7°F9.3°C 47.1°F8.4°C 94% 7.6 mph S12.2 kmh S 7.6 mph12.2 kmh 29.16 in987.5 mb 0.00 in0.0 mm 0.00 in0.0 mm 0.04 in1.0 mm
08:50 AM 48.7°F9.3°C 47.1°F8.4°C 94% 7.6 mph S12.2 kmh S 7.6 mph12.2 kmh 29.15 in987.1 mb 0.00 in0.0 mm 0.00 in0.0 mm 0.04 in1.0 mm
09:00 AM 48.7°F9.3°C 47.1°F8.4°C 94% 7.6 mph S12.2 kmh S 7.6 mph12.2 kmh 29.15 in987.1 mb 0.00 in0.0 mm 0.00 in0.0 mm 0.04 in1.0 mm
09:10 AM 48.7°F9.3°C 47.1°F8.4°C 94% 7.6 mph S12.2 kmh S 7.6 mph12.2 kmh 29.15 in987.1 mb 0.00 in0.0 mm 0.00 in0.0 mm 0.04 in1.0 mm
09:20 AM 48.7°F9.3°C 47.1°F8.4°C 94% 7.6 mph S12.2 kmh S 7.6 mph12.2 kmh 29.16 in987.5 mb 0.00 in0.0 mm 0.00 in0.0 mm 0.04 in1.0 mm
09:30 AM 48.7°F9.3°C 47.1°F8.4°C 94% 7.6 mph S12.2 kmh S 7.6 mph12.2 kmh 29.16 in987.5 mb 0.00 in0.0 mm 0.00 in0.0 mm 0.04 in1.0 mm
09:40 AM 51.8°F11.0°C 43.1°F6.2°C 72% 5.1 mph NW8.2 kmh NW 6.9 mph11.1 kmh 29.16 in987.5 mb 0.00 in0.0 mm 0.00 in0.0 mm 0.04 in1.0 mm
09:50 AM 52.0°F11.1°C 43.6°F6.4°C 73% 4.2 mph W6.8 kmh W 6.9 mph11.1 kmh 29.16 in987.5 mb 0.00 in0.0 mm 0.00 in0.0 mm 0.04 in1.0 mm
10:00 AM 52.3°F11.3°C 44.3°F6.8°C 74% 5.1 mph WSW8.2 kmh WSW 9.2 mph14.8 kmh 29.16 in987.5 mb 0.00 in0.0 mm 0.00 in0.0 mm 0.04 in1.0 mm
10:10 AM 53.8°F12.1°C 45.3°F7.4°C 73% 5.1 mph SW8.2 kmh SW 6.9 mph11.1 kmh 29.16 in987.5 mb 0.00 in0.0 mm 0.00 in0.0 mm 0.04 in1.0 mm
10:20 AM 54.0°F12.2°C 44.4°F6.9°C 70% 5.9 mph WSW9.5 kmh WSW 8.3 mph13.4 kmh 29.16 in987.5 mb 0.00 in0.0 mm 0.00 in0.0 mm 0.04 in1.0 mm
10:30 AM 53.8°F12.1°C 44.6°F7.0°C 71% 6.7 mph WSW10.8 kmh WSW 10.7 mph17.2 kmh 29.16 in987.5 mb 0.00 in0.0 mm 0.00 in0.0 mm 0.04 in1.0 mm
10:40 AM 54.7°F12.6°C 43.2°F6.2°C 65% 7.5 mph NW12.1 kmh NW 12.1 mph19.5 kmh 29.16 in987.5 mb 0.00 in0.0 mm 0.00 in0.0 mm 0.04 in1.0 mm
10:50 AM 53.8°F12.1°C 44.2°F6.8°C 70% 5.4 mph SSW8.7 kmh SSW 9.2 mph14.8 kmh 29.16 in987.5 mb 0.00 in0.0 mm 0.00 in0.0 mm 0.04 in1.0 mm
11:00 AM 54.3°F12.4°C 44.8°F7.1°C 70% 4.6 mph SSW7.4 kmh SSW 9.8 mph15.8 kmh 29.16 in987.5 mb 0.00 in0.0 mm 0.00 in0.0 mm 0.04 in1.0 mm
11:10 AM 56.8°F13.8°C 43.1°F6.2°C 60% 3.4 mph NW5.5 kmh NW 12.1 mph19.5 kmh 29.15 in987.1 mb 0.00 in0.0 mm 0.00 in0.0 mm 0.04 in1.0 mm
11:20 AM 55.8°F13.2°C 42.5°F5.8°C 61% 2.3 mph WSW3.7 kmh WSW 9.8 mph15.8 kmh 29.15 in987.1 mb 0.00 in0.0 mm 0.00 in0.0 mm 0.04 in1.0 mm
11:30 AM 57.2°F14.0°C 42.6°F5.9°C 58% 3.3 mph WSW5.3 kmh WSW 8.3 mph13.4 kmh 29.14 in986.8 mb 0.00 in0.0 mm 0.00 in0.0 mm 0.04 in1.0 mm
11:40 AM 57.4°F14.1°C 43.6°F6.4°C 60% 1.5 mph SE2.4 kmh SE 7.6 mph12.2 kmh 29.14 in986.8 mb 0.00 in0.0 mm 0.00 in0.0 mm 0.04 in1.0 mm
11:50 AM 58.1°F14.5°C 42.0°F5.6°C 55% 3.8 mph SSW6.1 kmh SSW 12.1 mph19.5 kmh 29.14 in986.8 mb 0.00 in0.0 mm 0.00 in0.0 mm 0.04 in1.0 mm
12:00 PM 58.3°F14.6°C 42.2°F5.7°C 55% 2.1 mph S3.4 kmh S 9.8 mph15.8 kmh 29.14 in986.8 mb 0.00 in0.0 mm 0.00 in0.0 mm 0.04 in1.0 mm
12:10 PM 58.8°F14.9°C 41.7°F5.4°C 53% 8.0 mph SW12.9 kmh SW 14.5 mph23.3 kmh 29.14 in986.8 mb 0.00 in0.0 mm 0.00 in0.0 mm 0.04 in1.0 mm
12:20 PM 57.4°F14.1°C 43.6°F6.4°C 60% 7.6 mph S12.2 kmh S 14.5 mph23.3 kmh 29.14 in986.8 mb 0.01 in0.3 mm 0.06 in1.5 mm 0.05 in1.3 mm
12:30 PM 56.3°F13.5°C 43.0°F6.1°C 61% 7.7 mph SW12.4 kmh SW 14.5 mph23.3 kmh 29.13 in986.5 mb 0.01 in0.3 mm 0.00 in0.0 mm 0.05 in1.3 mm
12:40 PM 56.1°F13.4°C 42.4°F5.8°C 60% 9.6 mph SW15.4 kmh SW 14.5 mph23.3 kmh 29.12 in986.1 mb 0.01 in0.3 mm 0.00 in0.0 mm 0.05 in1.3 mm
12:50 PM 56.8°F13.8°C 43.1°F6.2°C 60% 6.0 mph S9.7 kmh S 14.5 mph23.3 kmh 29.11 in985.8 mb 0.01 in0.3 mm 0.00 in0.0 mm 0.05 in1.3 mm
01:00 PM 55.8°F13.2°C 43.4°F6.3°C 63% 8.7 mph SW14.0 kmh SW 17.4 mph28.0 kmh 29.11 in985.8 mb 0.01 in0.3 mm 0.00 in0.0 mm 0.05 in1.3 mm
01:10 PM 54.7°F12.6°C 43.6°F6.4°C 66% 10.8 mph SSW17.4 kmh SSW 19.7 mph31.7 kmh 29.11 in985.8 mb 0.01 in0.3 mm 0.00 in0.0 mm 0.05 in1.3 mm
01:20 PM 54.5°F12.5°C 44.5°F6.9°C 69% 13.1 mph SW21.1 kmh SW 17.4 mph28.0 kmh 29.10 in985.4 mb 0.00 in0.0 mm 0.00 in0.0 mm 0.05 in1.3 mm
01:30 PM 54.9°F12.7°C 44.9°F7.2°C 69% 8.7 mph SW14.0 kmh SW 14.5 mph23.3 kmh 29.11 in985.8 mb 0.00 in0.0 mm 0.00 in0.0 mm 0.05 in1.3 mm
01:40 PM 54.5°F12.5°C 44.5°F6.9°C 69% 12.1 mph SSW19.5 kmh SSW 18.3 mph29.5 kmh 29.09 in985.1 mb 0.00 in0.0 mm 0.00 in0.0 mm 0.05 in1.3 mm
01:50 PM 54.5°F12.5°C 44.9°F7.2°C 70% 7.6 mph S12.2 kmh S 10.7 mph17.2 kmh 29.10 in985.4 mb 0.00 in0.0 mm 0.00 in0.0 mm 0.05 in1.3 mm
02:00 PM 54.9°F12.7°C 45.3°F7.4°C 70% 6.2 mph SW10.0 kmh SW 13.0 mph20.9 kmh 29.10 in985.4 mb 0.00 in0.0 mm 0.00 in0.0 mm 0.05 in1.3 mm
02:10 PM 55.6°F13.1°C 44.8°F7.1°C 67% 9.3 mph S15.0 kmh S 15.9 mph25.6 kmh 29.09 in985.1 mb 0.00 in0.0 mm 0.00 in0.0 mm 0.05 in1.3 mm
02:20 PM 55.4°F13.0°C 44.2°F6.8°C 66% 10.6 mph SSW17.1 kmh SSW 13.6 mph21.9 kmh 29.09 in985.1 mb 0.00 in0.0 mm 0.00 in0.0 mm 0.05 in1.3 mm
02:30 PM 55.2°F12.9°C 44.1°F6.7°C 66% 11.2 mph SSE18.0 kmh SSE 15.2 mph24.5 kmh 29.08 in984.8 mb 0.00 in0.0 mm 0.00 in0.0 mm 0.05 in1.3 mm
02:40 PM 55.0°F12.8°C 44.3°F6.8°C 67% 11.0 mph SW17.7 kmh SW 18.3 mph29.5 kmh 29.08 in984.8 mb 0.00 in0.0 mm 0.00 in0.0 mm 0.05 in1.3 mm
02:50 PM 54.9°F12.7°C 44.5°F6.9°C 68% 8.9 mph SW14.3 kmh SW 13.6 mph21.9 kmh 29.07 in984.4 mb 0.00 in0.0 mm 0.00 in0.0 mm 0.05 in1.3 mm
03:00 PM 55.2°F12.9°C 44.5°F6.9°C 67% 11.0 mph SW17.7 kmh SW 19.0 mph30.6 kmh 29.07 in984.4 mb 0.00 in0.0 mm 0.00 in0.0 mm 0.05 in1.3 mm
03:10 PM 54.9°F12.7°C 44.1°F6.7°C 67% 9.3 mph SW15.0 kmh SW 11.4 mph18.3 kmh 29.07 in984.4 mb 0.00 in0.0 mm 0.00 in0.0 mm 0.05 in1.3 mm
03:20 PM 54.3°F12.4°C 45.1°F7.3°C 71% 9.8 mph SW15.8 kmh SW 15.2 mph24.5 kmh 29.07 in984.4 mb 0.00 in0.0 mm 0.00 in0.0 mm 0.05 in1.3 mm
03:30 PM 54.0°F12.2°C 45.5°F7.5°C 73% 9.3 mph S15.0 kmh S 13.0 mph20.9 kmh 29.06 in984.1 mb 0.00 in0.0 mm 0.00 in0.0 mm 0.05 in1.3 mm
03:40 PM 53.4°F11.9°C 45.3°F7.4°C 74% 12.3 mph SW19.8 kmh SW 15.9 mph25.6 kmh 29.06 in984.1 mb 0.00 in0.0 mm 0.00 in0.0 mm 0.05 in1.3 mm
03:50 PM 53.4°F11.9°C 46.1°F7.8°C 76% 10.7 mph S17.2 kmh S 14.5 mph23.3 kmh 29.06 in984.1 mb 0.00 in0.0 mm 0.00 in0.0 mm 0.05 in1.3 mm
04:00 PM 53.2°F11.8°C 46.2°F7.9°C 77% 10.1 mph SW16.3 kmh SW 12.1 mph19.5 kmh 29.05 in983.7 mb 0.00 in0.0 mm 0.00 in0.0 mm 0.05 in1.3 mm
04:10 PM 53.1°F11.7°C 46.4°F8.0°C 78% 11.0 mph SW17.7 kmh SW 15.9 mph25.6 kmh 29.05 in983.7 mb 0.00 in0.0 mm 0.00 in0.0 mm 0.05 in1.3 mm
04:20 PM 52.5°F11.4°C 46.5°F8.1°C 80% 10.8 mph S17.4 kmh S 17.4 mph28.0 kmh 29.04 in983.4 mb 0.00 in0.0 mm 0.00 in0.0 mm 0.05 in1.3 mm
04:30 PM 52.2°F11.2°C 46.8°F8.2°C 82% 11.3 mph SSW18.2 kmh SSW 14.5 mph23.3 kmh 29.04 in983.4 mb 0.00 in0.0 mm 0.00 in0.0 mm 0.05 in1.3 mm
04:40 PM 51.8°F11.0°C 47.1°F8.4°C 84% 9.5 mph SSW15.3 kmh SSW 12.1 mph19.5 kmh 29.03 in983.1 mb 0.00 in0.0 mm 0.00 in0.0 mm 0.05 in1.3 mm
04:50 PM 51.6°F10.9°C 47.3°F8.5°C 85% 7.3 mph SSE11.7 kmh SSE 11.4 mph18.3 kmh 29.02 in982.7 mb 0.00 in0.0 mm 0.00 in0.0 mm 0.05 in1.3 mm
05:00 PM 51.6°F10.9°C 47.6°F8.7°C 86% 8.2 mph SSW13.2 kmh SSW 11.4 mph18.3 kmh 29.03 in983.1 mb 0.00 in0.0 mm 0.00 in0.0 mm 0.05 in1.3 mm
05:10 PM 51.8°F11.0°C 48.1°F8.9°C 87% 11.1 mph SSW17.9 kmh SSW 15.2 mph24.5 kmh 29.02 in982.7 mb 0.00 in0.0 mm 0.00 in0.0 mm 0.05 in1.3 mm
05:20 PM 51.8°F11.0°C 48.1°F8.9°C 87% 11.1 mph S17.9 kmh S 15.9 mph25.6 kmh 29.02 in982.7 mb 0.00 in0.0 mm 0.00 in0.0 mm 0.05 in1.3 mm
05:30 PM 51.8°F11.0°C 48.1°F8.9°C 87% 12.1 mph SW19.5 kmh SW 17.4 mph28.0 kmh 29.02 in982.7 mb 0.00 in0.0 mm 0.00 in0.0 mm 0.05 in1.3 mm
05:40 PM 51.8°F11.0°C 48.4°F9.1°C 88% 10.1 mph SSW16.3 kmh SSW 15.2 mph24.5 kmh 29.02 in982.7 mb 0.00 in0.0 mm 0.00 in0.0 mm 0.05 in1.3 mm
05:50 PM 52.0°F11.1°C 48.8°F9.3°C 89% 12.0 mph SW19.3 kmh SW 14.5 mph23.3 kmh 29.01 in982.4 mb 0.00 in0.0 mm 0.00 in0.0 mm 0.05 in1.3 mm
06:00 PM 52.0°F11.1°C 48.8°F9.3°C 89% 10.5 mph SSW16.9 kmh SSW 15.2 mph24.5 kmh 29.00 in982.1 mb 0.00 in0.0 mm 0.00 in0.0 mm 0.05 in1.3 mm
06:10 PM 52.2°F11.2°C 49.0°F9.4°C 89% 12.2 mph SW19.6 kmh SW 16.8 mph27.0 kmh 29.00 in982.1 mb 0.00 in0.0 mm 0.00 in0.0 mm 0.05 in1.3 mm
06:20 PM 52.2°F11.2°C 49.0°F9.4°C 89% 11.6 mph SSW18.7 kmh SSW 16.8 mph27.0 kmh 29.00 in982.1 mb 0.00 in0.0 mm 0.00 in0.0 mm 0.05 in1.3 mm
06:30 PM 52.2°F11.2°C 49.0°F9.4°C 89% 12.5 mph S20.1 kmh S 15.9 mph25.6 kmh 29.00 in982.1 mb 0.01 in0.3 mm 0.06 in1.5 mm 0.06 in1.5 mm
06:40 PM 52.2°F11.2°C 49.3°F9.6°C 90% 11.5 mph SSW18.5 kmh SSW 17.4 mph28.0 kmh 29.00 in982.1 mb 0.01 in0.3 mm 0.00 in0.0 mm 0.06 in1.5 mm
06:50 PM 52.3°F11.3°C 49.5°F9.7°C 90% 13.2 mph SW21.2 kmh SW 16.8 mph27.0 kmh 29.00 in982.1 mb 0.01 in0.3 mm 0.00 in0.0 mm 0.06 in1.5 mm
07:00 PM 52.3°F11.3°C 49.5°F9.7°C 90% 11.8 mph SW19.0 kmh SW 18.3 mph29.5 kmh 28.99 in981.7 mb 0.01 in0.3 mm 0.00 in0.0 mm 0.06 in1.5 mm
07:10 PM 52.5°F11.4°C 49.7°F9.8°C 90% 8.9 mph SW14.3 kmh SW 13.6 mph21.9 kmh 28.99 in981.7 mb 0.01 in0.3 mm 0.00 in0.0 mm 0.06 in1.5 mm
07:20 PM 52.5°F11.4°C 49.7°F9.8°C 90% 9.9 mph SW15.9 kmh SW 14.5 mph23.3 kmh 28.98 in981.4 mb 0.01 in0.3 mm 0.00 in0.0 mm 0.06 in1.5 mm
07:30 PM 52.7°F11.5°C 49.9°F9.9°C 90% 9.7 mph SW15.6 kmh SW 15.2 mph24.5 kmh 28.98 in981.4 mb 0.00 in0.0 mm 0.00 in0.0 mm 0.06 in1.5 mm
07:40 PM 52.7°F11.5°C 49.9°F9.9°C 90% 11.6 mph SSW18.7 kmh SSW 22.8 mph36.7 kmh 28.99 in981.7 mb 0.00 in0.0 mm 0.00 in0.0 mm 0.06 in1.5 mm
07:50 PM 52.9°F11.6°C 50.0°F10.0°C 90% 10.7 mph SW17.2 kmh SW 19.0 mph30.6 kmh 28.98 in981.4 mb 0.00 in0.0 mm 0.00 in0.0 mm 0.06 in1.5 mm
08:00 PM 52.9°F11.6°C 49.7°F9.8°C 89% 9.9 mph S15.9 kmh S 12.1 mph19.5 kmh 28.98 in981.4 mb 0.00 in0.0 mm 0.00 in0.0 mm 0.06 in1.5 mm
08:10 PM 52.9°F11.6°C 49.7°F9.8°C 89% 9.5 mph SW15.3 kmh SW 15.2 mph24.5 kmh 28.97 in981.0 mb 0.00 in0.0 mm 0.00 in0.0 mm 0.06 in1.5 mm
08:20 PM 53.1°F11.7°C 49.6°F9.8°C 88% 11.3 mph S18.2 kmh S 14.5 mph23.3 kmh 28.97 in981.0 mb 0.00 in0.0 mm 0.00 in0.0 mm 0.06 in1.5 mm
08:30 PM 53.1°F11.7°C 49.6°F9.8°C 88% 10.2 mph SSW16.4 kmh SSW 14.5 mph23.3 kmh 28.98 in981.4 mb 0.00 in0.0 mm 0.00 in0.0 mm 0.06 in1.5 mm
08:40 PM 53.2°F11.8°C 49.8°F9.9°C 88% 11.4 mph S18.3 kmh S 16.8 mph27.0 kmh 28.97 in981.0 mb 0.00 in0.0 mm 0.00 in0.0 mm 0.06 in1.5 mm
08:50 PM 53.2°F11.8°C 49.8°F9.9°C 88% 11.0 mph S17.7 kmh S 16.8 mph27.0 kmh 28.96 in980.7 mb 0.00 in0.0 mm 0.00 in0.0 mm 0.06 in1.5 mm
09:00 PM 53.2°F11.8°C 49.5°F9.7°C 87% 9.1 mph SSW14.6 kmh SSW 13.0 mph20.9 kmh 28.97 in981.0 mb 0.00 in0.0 mm 0.00 in0.0 mm 0.06 in1.5 mm
09:10 PM 53.2°F11.8°C 49.8°F9.9°C 88% 8.1 mph SW13.0 kmh SW 12.1 mph19.5 kmh 28.96 in980.7 mb 0.00 in0.0 mm 0.00 in0.0 mm 0.06 in1.5 mm
09:20 PM 53.4°F11.9°C 50.0°F10.0°C 88% 7.6 mph SSW12.2 kmh SSW 12.1 mph19.5 kmh 28.96 in980.7 mb 0.00 in0.0 mm 0.00 in0.0 mm 0.06 in1.5 mm
09:30 PM 53.6°F12.0°C 50.1°F10.1°C 88% 8.0 mph S12.9 kmh S 13.6 mph21.9 kmh 28.96 in980.7 mb 0.00 in0.0 mm 0.00 in0.0 mm 0.06 in1.5 mm
09:40 PM 53.8°F12.1°C 50.0°F10.0°C 87% 9.4 mph SSW15.1 kmh SSW 13.6 mph21.9 kmh 28.95 in980.4 mb 0.00 in0.0 mm 0.00 in0.0 mm 0.06 in1.5 mm
09:50 PM 54.0°F12.2°C 49.9°F9.9°C 86% 10.3 mph S16.6 kmh S 15.9 mph25.6 kmh 28.96 in980.7 mb 0.00 in0.0 mm 0.00 in0.0 mm 0.06 in1.5 mm
10:00 PM 54.0°F12.2°C 49.6°F9.8°C 85% 7.6 mph SSW12.2 kmh SSW 11.4 mph18.3 kmh 28.96 in980.7 mb 0.00 in0.0 mm 0.00 in0.0 mm 0.06 in1.5 mm
10:10 PM 54.1°F12.3°C 49.7°F9.8°C 85% 7.8 mph SSE12.6 kmh SSE 15.9 mph25.6 kmh 28.96 in980.7 mb 0.01 in0.3 mm 0.06 in1.5 mm 0.07 in1.8 mm
10:20 PM 54.0°F12.2°C 49.6°F9.8°C 85% 8.8 mph SW14.2 kmh SW 13.0 mph20.9 kmh 28.96 in980.7 mb 0.01 in0.3 mm 0.00 in0.0 mm 0.07 in1.8 mm
10:30 PM 54.0°F12.2°C 49.6°F9.8°C 85% 8.1 mph SW13.0 kmh SW 13.0 mph20.9 kmh 28.96 in980.7 mb 0.01 in0.3 mm 0.00 in0.0 mm 0.07 in1.8 mm
10:40 PM 53.8°F12.1°C 49.4°F9.7°C 85% 5.4 mph SSW8.7 kmh SSW 9.2 mph14.8 kmh 28.95 in980.4 mb 0.01 in0.3 mm 0.00 in0.0 mm 0.07 in1.8 mm
10:50 PM 53.8°F12.1°C 49.7°F9.8°C 86% 7.5 mph SW12.1 kmh SW 11.4 mph18.3 kmh 28.97 in981.0 mb 0.01 in0.3 mm 0.00 in0.0 mm 0.07 in1.8 mm
11:00 PM 53.1°F11.7°C 48.7°F9.3°C 85% 8.3 mph NW13.4 kmh NW 10.7 mph17.2 kmh 28.97 in981.0 mb 0.02 in0.5 mm 0.01 in0.3 mm 0.08 in2.0 mm
11:10 PM 51.8°F11.0°C 47.1°F8.4°C 84% 9.2 mph WNW14.8 kmh WNW 13.6 mph21.9 kmh 28.98 in981.4 mb 0.01 in0.3 mm 0.00 in0.0 mm 0.08 in2.0 mm
11:20 PM 50.9°F10.5°C 45.9°F7.7°C 83% 7.5 mph NW12.1 kmh NW 9.2 mph14.8 kmh 28.98 in981.4 mb 0.01 in0.3 mm 0.00 in0.0 mm 0.08 in2.0 mm
11:30 PM 50.4°F10.2°C 45.4°F7.4°C 83% 6.4 mph NW10.3 kmh NW 9.2 mph14.8 kmh 28.98 in981.4 mb 0.01 in0.3 mm 0.00 in0.0 mm 0.08 in2.0 mm
11:40 PM 50.0°F10.0°C 45.0°F7.2°C 83% 4.4 mph WNW7.1 kmh WNW 6.9 mph11.1 kmh 28.98 in981.4 mb 0.01 in0.3 mm 0.00 in0.0 mm 0.08 in2.0 mm
11:50 PM 49.8°F9.9°C 44.9°F7.2°C 83% 4.2 mph W6.8 kmh W 6.9 mph11.1 kmh 28.98 in981.4 mb 0.01 in0.3 mm 0.00 in0.0 mm 0.08 in2.0 mm